Time;durP1;ratioP1;P1;durP2;ratioP2;P2;SDS_P1;SDS_P2;PMS_P1;PMS_P2;Temp;Humidity;BMP_temperature;BMP_pressure;BME280_temperature;BME280_humidity;BME280_pressure;Samples;Min_cycle;Max_cycle;Signal;HPM_P1;HPM_P2
2021/10/11 04:17:20;;;;;;;0.80;0.80;;;;;;;1.09;100.00;99653.97;5080685;23;20079;-72
2021/10/11 04:19:45;;;;;;;0.82;0.82;;;;;;;1.08;100.00;99652.25;4952908;28;20071;-72
2021/10/11 04:22:10;;;;;;;1.95;1.83;;;;;;;1.19;100.00;99658.56;4953830;28;20027;-72
2021/10/11 04:24:38;;;;;;;0.85;0.85;;;;;;;1.04;100.00;99668.25;4954207;28;20027;-72
2021/10/11 04:27:03;;;;;;;1.10;1.10;;;;;;;1.20;100.00;99662.84;4953764;28;20075;-72
2021/10/11 04:29:28;;;;;;;0.70;0.70;;;;;;;1.01;100.00;99668.13;4950481;28;20046;-72
2021/10/11 04:31:54;;;;;;;0.60;0.60;;;;;;;0.99;100.00;99664.69;4953347;28;20058;-72
2021/10/11 04:34:19;;;;;;;0.90;0.90;;;;;;;0.98;100.00;99657.84;4953178;28;20075;-72
2021/10/11 04:36:44;;;;;;;1.40;1.40;;;;;;;0.94;100.00;99650.91;4953413;28;20078;-72
2021/10/11 04:39:09;;;;;;;5.93;2.25;;;;;;;0.86;100.00;99662.50;4953362;28;20035;-72
2021/10/11 04:41:35;;;;;;;0.88;0.88;;;;;;;0.93;100.00;99669.59;4953277;28;20022;-72
2021/10/11 04:44:00;;;;;;;1.00;0.80;;;;;;;0.92;100.00;99670.38;4953294;28;20034;-73
2021/10/11 04:46:25;;;;;;;1.27;1.25;;;;;;;0.84;100.00;99679.47;4953132;28;20377;-71
2021/10/11 04:48:51;;;;;;;1.00;1.00;;;;;;;0.86;100.00;99688.03;4954612;28;20026;-72
2021/10/11 04:51:16;;;;;;;4.30;1.88;;;;;;;0.90;100.00;99687.31;4953115;28;20362;-71
2021/10/11 04:53:41;;;;;;;1.13;1.13;;;;;;;0.94;100.00;99690.03;4954076;28;20511;-74
2021/10/11 04:56:07;;;;;;;1.33;1.33;;;;;;;0.96;100.00;99690.06;4953086;28;20078;-72
2021/10/11 04:58:32;;;;;;;1.13;1.13;;;;;;;0.96;100.00;99692.63;4953506;28;20472;-72
2021/10/11 05:00:58;;;;;;;0.93;0.93;;;;;;;1.01;100.00;99688.56;4953109;28;20035;-72
2021/10/11 05:03:24;;;;;;;1.42;1.38;;;;;;;1.08;100.00;99682.88;4957133;28;20019;-72
2021/10/11 05:05:49;;;;;;;1.90;1.80;;;;;;;1.14;100.00;99679.66;4955254;28;20023;-72
2021/10/11 05:08:14;;;;;;;2.25;2.15;;;;;;;1.27;100.00;99687.78;4952158;28;20038;-70
2021/10/11 05:10:39;;;;;;;1.13;1.02;;;;;;;1.22;100.00;99691.84;4953046;28;20119;-70
2021/10/11 05:13:05;;;;;;;1.10;1.10;;;;;;;1.11;100.00;99685.50;4952867;28;20472;-70
2021/10/11 05:15:30;;;;;;;2.20;2.10;;;;;;;1.14;100.00;99685.63;4956546;28;20429;-70
2021/10/11 05:17:55;;;;;;;2.63;1.60;;;;;;;1.25;100.00;99689.38;4953857;28;20106;-72
2021/10/11 05:20:21;;;;;;;2.22;2.03;;;;;;;1.21;100.00;99681.56;4956099;28;20428;-73
2021/10/11 05:22:46;;;;;;;1.83;1.73;;;;;;;1.13;100.00;99691.53;4952969;28;20026;-73
2021/10/11 05:25:12;;;;;;;2.28;1.52;;;;;;;1.24;100.00;99689.34;4955358;28;20031;-73
2021/10/11 05:27:38;;;;;;;1.20;1.20;;;;;;;1.13;100.00;99696.66;4948812;28;20260;-73
2021/10/11 05:30:05;;;;;;;0.70;0.70;;;;;;;1.04;100.00;99701.44;4954739;28;20070;-72
2021/10/11 05:32:32;;;;;;;1.13;1.13;;;;;;;1.22;100.00;99704.63;4952693;28;20027;-72
2021/10/11 05:34:58;;;;;;;1.42;1.42;;;;;;;1.20;100.00;99706.22;4952918;28;20023;-70
2021/10/11 05:37:24;;;;;;;1.23;1.23;;;;;;;1.09;99.76;99722.88;4952821;28;20465;-71
2021/10/11 05:39:50;;;;;;;0.73;0.73;;;;;;;0.94;99.82;99713.00;4951299;28;20031;-71
2021/10/11 05:42:15;;;;;;;1.13;1.13;;;;;;;0.92;100.00;99714.63;4952123;29;20023;-71
2021/10/11 05:44:40;;;;;;;1.75;1.65;;;;;;;0.86;100.00;99718.63;4952886;28;20050;-71
2021/10/11 05:47:06;;;;;;;0.68;0.68;;;;;;;0.86;100.00;99703.31;4960075;28;20055;-71
2021/10/11 05:49:31;;;;;;;1.48;1.42;;;;;;;0.88;100.00;99701.72;4956047;28;20503;-71
2021/10/11 05:51:57;;;;;;;0.68;0.68;;;;;;;0.91;100.00;99706.91;4956122;28;20023;-71
2021/10/11 05:54:22;;;;;;;1.95;1.85;;;;;;;0.93;100.00;99707.84;4956746;28;20065;-71
2021/10/11 05:56:47;;;;;;;1.92;1.83;;;;;;;1.02;100.00;99715.84;4955985;28;20043;-71
2021/10/11 05:59:13;;;;;;;1.17;1.17;;;;;;;1.14;100.00;99713.69;4954839;29;20109;-71
2021/10/11 06:01:38;;;;;;;0.65;0.65;;;;;;;1.30;99.58;99717.63;4955902;28;20416;-71
2021/10/11 06:04:03;;;;;;;0.85;0.85;;;;;;;1.34;99.34;99724.56;4962526;28;20027;-71
2021/10/11 06:06:29;;;;;;;1.20;1.15;;;;;;;1.26;99.08;99726.88;4959098;28;20019;-72
2021/10/11 06:08:54;;;;;;;1.00;1.00;;;;;;;1.36;98.90;99727.19;4956206;28;20392;-72
2021/10/11 06:11:21;;;;;;;0.68;0.68;;;;;;;1.40;98.61;99723.91;4952571;29;20052;-72
2021/10/11 06:13:46;;;;;;;0.60;0.60;;;;;;;1.41;98.16;99730.78;4955739;28;20090;-72
2021/10/11 06:16:12;;;;;;;0.88;0.88;;;;;;;1.65;98.15;99731.59;4959221;28;20122;-72
2021/10/11 06:18:38;;;;;;;0.60;0.60;;;;;;;1.69;97.06;99728.31;4955716;28;20490;-72
2021/10/11 06:21:03;;;;;;;0.75;0.75;;;;;;;1.89;96.29;99723.00;4958311;28;20019;-72
2021/10/11 06:23:29;;;;;;;0.75;0.75;;;;;;;1.98;95.69;99725.81;4955508;28;20050;-72
2021/10/11 06:25:54;;;;;;;0.70;0.70;;;;;;;2.24;95.10;99726.63;4951748;29;20042;-72
2021/10/11 06:28:20;;;;;;;1.30;1.30;;;;;;;2.42;94.19;99728.84;4949925;29;20069;-72
2021/10/11 06:30:46;;;;;;;4.40;2.28;;;;;;;2.52;93.64;99730.91;4957214;28;20027;-72
2021/10/11 06:33:16;;;;;;;0.80;0.80;;;;;;;2.60;92.42;99739.63;4955380;28;20031;-72
2021/10/11 06:35:41;;;;;;;1.13;1.13;;;;;;;2.40;92.61;99740.75;4950495;29;20023;-72
2021/10/11 06:38:07;;;;;;;1.55;1.42;;;;;;;2.62;92.05;99743.13;4961833;28;20034;-72
2021/10/11 06:40:32;;;;;;;1.13;1.13;;;;;;;2.53;92.21;99738.59;4950161;28;20496;-72
2021/10/11 06:42:58;;;;;;;1.65;1.55;;;;;;;2.60;92.83;99754.13;4954998;28;20548;-72
2021/10/11 06:45:24;;;;;;;0.80;0.80;;;;;;;2.55;92.50;99751.44;4955409;28;20026;-72
2021/10/11 06:47:49;;;;;;;1.05;1.05;;;;;;;2.51;92.42;99745.34;4958720;28;20019;-72
2021/10/11 06:50:15;;;;;;;0.85;0.85;;;;;;;2.35;92.99;99735.50;4955828;28;20019;-72
2021/10/11 06:52:40;;;;;;;5.28;1.20;;;;;;;2.26;93.59;99730.97;4955101;28;20045;-72
2021/10/11 06:55:07;;;;;;;0.75;0.75;;;;;;;2.37;93.54;99740.63;4955070;28;20027;-72
2021/10/11 06:57:32;;;;;;;0.70;0.70;;;;;;;2.51;93.05;99730.00;4953986;28;20086;-72
2021/10/11 06:59:57;;;;;;;1.02;1.02;;;;;;;2.50;92.99;99732.53;4955534;28;20061;-72
2021/10/11 07:02:23;;;;;;;0.73;0.73;;;;;;;2.52;93.02;99723.22;4957906;28;20058;-72
2021/10/11 07:04:56;;;;;;;1.13;1.13;;;;;;;2.69;93.07;99736.50;4954843;28;20138;-71
2021/10/11 07:07:23;;;;;;;0.90;0.90;;;;;;;2.79;92.89;99736.78;4952030;28;20066;-72
2021/10/11 07:09:48;;;;;;;9.65;1.85;;;;;;;2.90;92.51;99734.56;4954805;28;20019;-72
2021/10/11 07:12:13;;;;;;;0.85;0.85;;;;;;;3.12;92.35;99741.13;4954489;28;21508;-72
2021/10/11 07:14:39;;;;;;;1.70;1.60;;;;;;;2.94;92.32;99746.59;4955327;28;20022;-72
2021/10/11 07:17:04;;;;;;;0.85;0.85;;;;;;;3.13;91.67;99747.97;4954431;28;20404;-72
2021/10/11 07:19:29;;;;;;;1.08;1.08;;;;;;;3.06;91.54;99746.06;4957020;28;20037;-72
2021/10/11 07:21:55;;;;;;;2.38;2.28;;;;;;;3.21;91.35;99751.63;4954442;28;20023;-72
2021/10/11 07:24:20;;;;;;;1.33;1.25;;;;;;;3.18;91.25;99751.53;4956311;28;20029;-72
2021/10/11 07:26:45;;;;;;;0.90;0.90;;;;;;;3.18;91.46;99756.63;4954334;28;20093;-72
2021/10/11 07:29:11;;;;;;;1.70;1.60;;;;;;;3.31;91.34;99758.72;4954706;28;20039;-71
2021/10/11 07:31:36;;;;;;;1.10;1.10;;;;;;;3.34;91.05;99753.69;4954221;28;20374;-71
2021/10/11 07:34:02;;;;;;;1.05;1.05;;;;;;;3.65;90.36;99758.72;4954353;28;20019;-71
2021/10/11 07:36:27;;;;;;;1.02;1.02;;;;;;;3.67;89.55;99757.94;4958985;28;20214;-71
2021/10/11 07:38:52;;;;;;;1.17;1.08;;;;;;;3.74;89.69;99766.66;4955883;28;20077;-71
2021/10/11 07:41:18;;;;;;;2.17;1.52;;;;;;;3.71;90.21;99769.13;4953950;28;20050;-72
2021/10/11 07:43:44;;;;;;;3.50;2.03;;;;;;;4.43;88.75;99760.59;4954241;28;20019;-72
2021/10/11 07:46:09;;;;;;;1.25;1.25;;;;;;;4.82;87.27;99753.75;4955916;28;20031;-69
2021/10/11 07:48:35;;;;;;;1.58;1.58;;;;;;;5.44;84.78;99760.09;4955573;28;20023;-72
2021/10/11 07:51:00;;;;;;;2.30;2.13;;;;;;;5.90;83.96;99767.78;4954034;28;20023;-73
2021/10/11 07:53:26;;;;;;;1.27;1.27;;;;;;;6.32;81.13;99771.91;4954489;28;20383;-73
2021/10/11 07:55:51;;;;;;;2.90;1.77;;;;;;;6.02;80.19;99766.28;4953770;28;20038;-73
2021/10/11 07:58:17;;;;;;;0.75;0.75;;;;;;;6.72;77.95;99762.19;4953898;28;20046;-73
2021/10/11 08:00:42;;;;;;;1.70;1.60;;;;;;;8.19;72.79;99753.38;4957007;28;20033;-73
2021/10/11 08:03:08;;;;;;;0.68;0.68;;;;;;;10.40;64.18;99750.63;4948197;28;20031;-73
2021/10/11 08:05:34;;;;;;;1.35;1.35;;;;;;;12.52;55.92;99748.53;4952458;28;20077;-73
2021/10/11 08:07:59;;;;;;;1.00;0.95;;;;;;;12.31;55.78;99746.13;4952846;28;20038;-71
2021/10/11 08:10:24;;;;;;;1.35;1.30;;;;;;;13.03;54.14;99741.00;4956868;28;20042;-71
2021/10/11 08:12:50;;;;;;;0.80;0.80;;;;;;;13.88;50.26;99746.81;4953567;28;20031;-71
2021/10/11 08:15:17;;;;;;;0.68;0.68;;;;;;;15.58;49.17;99743.53;4956111;28;20105;-71
2021/10/11 08:17:43;;;;;;;2.65;1.80;;;;;;;14.54;49.20;99743.06;4952364;28;20023;-71
2021/10/11 08:20:09;;;;;;;1.77;1.67;;;;;;;14.29;50.35;99736.56;4955670;28;20551;-71
2021/10/11 08:22:34;;;;;;;1.67;1.58;;;;;;;12.55;54.15;99753.69;4953339;28;20023;-71
2021/10/11 08:25:00;;;;;;;1.35;1.25;;;;;;;13.23;54.00;99746.00;4954891;28;20354;-71
2021/10/11 08:27:25;;;;;;;1.08;0.98;;;;;;;13.38;53.38;99748.38;4952047;28;20162;-71
2021/10/11 08:29:51;;;;;;;4.07;1.30;;;;;;;15.20;48.39;99743.53;4953585;28;20023;-71
2021/10/11 08:32:19;;;;;;;1.25;1.25;;;;;;;13.80;51.55;99747.78;4953430;28;20024;-72
2021/10/11 08:34:44;;;;;;;1.58;1.48;;;;;;;15.28;49.07;99749.41;4949044;28;20071;-71
2021/10/11 08:37:10;;;;;;;1.42;1.05;;;;;;;15.60;47.46;99746.13;4957337;28;20472;-71
2021/10/11 08:39:36;;;;;;;2.50;1.52;;;;;;;17.52;44.21;99737.53;4953401;28;20053;-71
2021/10/11 08:42:03;;;;;;;1.95;1.85;;;;;;;18.26;41.11;99741.28;4953216;28;20030;-71
2021/10/11 08:44:29;;;;;;;2.17;1.48;;;;;;;17.80;41.36;99745.41;4953500;28;20102;-71
2021/10/11 08:46:54;;;;;;;1.92;1.73;;;;;;;17.04;43.81;99750.31;4953472;28;20098;-71
2021/10/11 08:49:20;;;;;;;1.48;1.38;;;;;;;17.38;42.92;99750.19;4953212;28;20019;-71
2021/10/11 08:51:45;;;;;;;2.20;2.10;;;;;;;18.32;41.54;99740.19;4952341;28;20098;-74
2021/10/11 08:54:10;;;;;;;2.17;2.08;;;;;;;19.38;38.81;99732.00;4954247;28;20035;-71
2021/10/11 08:56:36;;;;;;;5.28;2.08;;;;;;;19.09;39.02;99728.69;4953966;28;20034;-70
2021/10/11 08:59:01;;;;;;;1.67;1.40;;;;;;;18.98;40.17;99736.13;4959105;28;20115;-69
2021/10/11 09:01:27;;;;;;;2.25;2.05;;;;;;;19.21;40.54;99727.41;4953280;28;20021;-70
2021/10/11 09:03:52;;;;;;;2.25;2.05;;;;;;;19.96;38.51;99721.81;4957873;28;20436;-70
2021/10/11 09:06:18;;;;;;;2.67;1.88;;;;;;;19.77;38.90;99717.31;4954982;28;20030;-70
2021/10/11 09:08:43;;;;;;;2.03;1.83;;;;;;;19.42;38.53;99730.97;4952960;28;20054;-70
2021/10/11 09:11:11;;;;;;;1.30;1.15;;;;;;;18.40;40.46;99733.78;4955683;28;20035;-70
2021/10/11 09:13:43;;;;;;;6.43;2.13;;;;;;;18.95;39.91;99729.22;4951819;29;20023;-70
2021/10/11 09:16:12;;;;;;;1.08;1.05;;;;;;;18.49;40.23;99730.00;4954854;28;20027;-69
2021/10/11 09:18:40;;;;;;;1.47;1.37;;;;;;;18.24;41.98;99720.34;4953289;28;20033;-70
2021/10/11 09:21:07;;;;;;;1.15;1.15;;;;;;;18.82;39.86;99719.22;4955182;28;20031;-70
2021/10/11 09:23:33;;;;;;;1.77;1.67;;;;;;;18.40;41.20;99722.44;4956793;28;20023;-71
2021/10/11 09:26:00;;;;;;;3.67;2.38;;;;;;;19.02;39.55;99716.72;4956133;28;20026;-69
2021/10/11 09:28:27;;;;;;;2.42;1.95;;;;;;;18.94;39.98;99716.13;4956858;28;20365;-70
2021/10/11 09:30:54;;;;;;;2.55;1.70;;;;;;;18.90;39.15;99714.53;4956981;28;20027;-70
2021/10/11 09:33:21;;;;;;;2.30;1.50;;;;;;;19.85;38.42;99710.88;4957660;28;20081;-70
2021/10/11 09:35:49;;;;;;;2.05;1.10;;;;;;;19.61;38.30;99710.94;4955100;28;20027;-70
2021/10/11 09:38:29;;;;;;;1.30;1.20;;;;;;;21.02;36.29;99712.84;4960526;28;20392;-70
2021/10/11 09:40:57;;;;;;;2.47;1.63;;;;;;;21.12;37.08;99716.75;4956232;28;20055;-70
2021/10/11 09:43:28;;;;;;;1.58;1.48;;;;;;;19.19;40.65;99724.81;4952480;29;20031;-70
2021/10/11 09:45:54;;;;;;;8.52;3.08;;;;;;;18.93;40.12;99727.56;4956302;28;20429;-70
2021/10/11 09:48:22;;;;;;;1.27;0.98;;;;;;;16.96;43.97;99738.28;4957212;28;20019;-70
2021/10/11 09:50:47;;;;;;;1.17;1.17;;;;;;;19.47;39.90;99721.13;4954822;29;20094;-70
2021/10/11 09:53:15;;;;;;;8.65;3.38;;;;;;;18.29;41.23;99725.44;4956096;28;20023;-70
2021/10/11 09:55:41;;;;;;;1.35;0.90;;;;;;;18.74;41.99;99717.72;4956458;28;20480;-70
2021/10/11 09:58:09;;;;;;;2.75;1.70;;;;;;;20.39;37.36;99712.09;4957285;28;20020;-70
2021/10/11 10:00:36;;;;;;;1.83;1.70;;;;;;;20.03;38.04;99708.34;4960040;28;20038;-70
2021/10/11 10:03:01;;;;;;;4.22;2.28;;;;;;;21.13;35.57;99705.31;4956573;28;20133;-71
2021/10/11 10:05:33;;;;;;;1.95;1.55;;;;;;;21.66;35.41;99701.06;4960832;28;20106;-70
2021/10/11 10:08:10;;;;;;;1.27;1.25;;;;;;;22.87;34.66;99708.09;4959911;28;20023;-71
2021/10/11 10:10:39;;;;;;;3.47;2.67;;;;;;;23.83;31.26;99700.16;4954875;28;20480;-70
2021/10/11 10:13:15;;;;;;;1.42;1.35;;;;;;;23.55;31.60;99692.94;4955437;28;20034;-71
2021/10/11 10:15:41;;;;;;;3.53;1.55;;;;;;;22.90;32.53;99682.41;4957230;28;20484;-70
2021/10/11 10:18:09;;;;;;;1.42;0.77;;;;;;;23.60;32.27;99682.94;4955572;28;20023;-70
2021/10/11 10:20:36;;;;;;;1.85;1.75;;;;;;;22.56;33.37;99693.88;4956678;28;20046;-70
2021/10/11 10:23:02;;;;;;;2.30;1.05;;;;;;;21.54;35.01;99694.59;4955309;28;20015;-70
2021/10/11 10:25:28;;;;;;;2.10;2.00;;;;;;;22.12;32.86;99689.13;4954708;28;20488;-70
2021/10/11 10:28:10;;;;;;;6.05;2.75;;;;;;;21.34;34.41;99695.56;4979654;23;20086;-74
2021/10/11 10:30:35;;;;;;;5.70;2.50;;;;;;;21.77;34.73;99683.78;4963806;28;20129;-73
2021/10/11 10:33:03;;;;;;;1.30;1.20;;;;;;;23.47;31.95;99676.63;4970960;28;20043;-73
2021/10/11 10:35:37;;;;;;;1.73;1.63;;;;;;;22.22;33.14;99673.66;4964156;28;20030;-72
2021/10/11 10:38:02;;;;;;;1.55;1.45;;;;;;;21.76;34.68;99687.38;4970931;28;20043;-72
2021/10/11 10:40:30;;;;;;;2.15;1.35;;;;;;;21.77;35.31;99686.44;4960644;28;20062;-73
2021/10/11 10:43:12;;;;;;;2.20;1.67;;;;;;;23.57;31.36;99677.81;4958732;28;20029;-73
2021/10/11 10:45:38;;;;;;;6.35;5.43;;;;;;;21.61;34.15;99687.22;4958933;28;20444;-72
2021/10/11 10:48:21;;;;;;;2.47;1.55;;;;;;;21.03;34.34;99688.19;4957295;28;20105;-73
2021/10/11 10:50:46;;;;;;;1.00;1.00;;;;;;;20.42;36.14;99685.66;4959484;28;20384;-72
2021/10/11 10:53:12;;;;;;;3.00;2.15;;;;;;;20.50;35.74;99673.03;4958462;28;20027;-72
2021/10/11 10:55:39;;;;;;;1.88;1.70;;;;;;;19.88;37.22;99676.56;4962150;28;20447;-75
2021/10/11 10:58:08;;;;;;;2.15;1.90;;;;;;;20.32;37.11;99671.19;4961608;28;20031;-75
2021/10/11 11:00:34;;;;;;;1.83;1.55;;;;;;;20.81;35.18;99663.75;4961915;28;20062;-75
2021/10/11 11:03:00;;;;;;;5.50;1.92;;;;;;;21.73;34.05;99645.28;4959237;28;20109;-75
2021/10/11 11:05:29;;;;;;;2.50;2.30;;;;;;;21.34;34.67;99647.25;4959866;28;20445;-75
2021/10/11 11:07:55;;;;;;;3.58;2.17;;;;;;;20.82;36.25;99644.41;4954703;28;20019;-75
2021/10/11 11:10:27;;;;;;;1.63;1.50;;;;;;;20.16;37.50;99640.28;4953234;28;20038;-75
2021/10/11 11:12:54;;;;;;;2.08;1.88;;;;;;;19.64;37.88;99646.88;4956897;28;20019;-77
2021/10/11 11:15:36;;;;;;;2.55;1.25;;;;;;;20.49;37.25;99637.94;4957140;28;20101;-77
2021/10/11 11:18:14;;;;;;;2.85;1.85;;;;;;;21.14;35.58;99630.56;4963251;28;20090;-75
2021/10/11 11:20:42;;;;;;;2.75;2.33;;;;;;;19.89;37.12;99625.66;4958576;28;20029;-75
2021/10/11 11:23:10;;;;;;;1.65;1.55;;;;;;;19.83;38.06;99631.19;4960272;28;20038;-75
2021/10/11 11:25:38;;;;;;;1.40;1.30;;;;;;;20.98;36.38;99626.94;4954991;28;20026;-75
2021/10/11 11:28:08;;;;;;;3.78;2.03;;;;;;;19.71;38.47;99622.88;4957859;28;20108;-75
2021/10/11 11:30:34;;;;;;;2.03;1.92;;;;;;;18.63;40.71;99632.38;4954112;28;20030;-74
2021/10/11 11:33:04;;;;;;;2.55;2.35;;;;;;;19.32;39.48;99624.47;4958622;28;20022;-75
2021/10/11 11:35:44;;;;;;;2.35;2.13;;;;;;;19.78;38.46;99628.75;4944363;28;20480;-75
2021/10/11 11:38:11;;;;;;;1.50;1.40;;;;;;;21.12;37.10;99621.88;4954173;28;20059;-75
2021/10/11 11:40:47;;;;;;;7.10;3.53;;;;;;;21.64;36.28;99619.38;4961291;28;20141;-75
2021/10/11 11:43:13;;;;;;;2.17;1.98;;;;;;;21.87;35.85;99620.00;4956828;28;20023;-75
2021/10/11 11:45:44;;;;;;;1.90;1.73;;;;;;;21.09;36.63;99626.47;4957262;28;20027;-75
2021/10/11 11:48:12;;;;;;;3.72;2.58;;;;;;;21.51;36.07;99623.53;4955239;28;20027;-75
2021/10/11 11:50:39;;;;;;;1.58;1.48;;;;;;;21.36;36.29;99624.28;4958099;28;20019;-75
2021/10/11 11:53:13;;;;;;;1.65;1.55;;;;;;;21.16;35.19;99618.16;4956103;28;20037;-75
2021/10/11 11:55:40;;;;;;;1.83;1.65;;;;;;;20.65;36.66;99624.97;4957400;28;20027;-74
2021/10/11 11:58:14;;;;;;;1.73;1.63;;;;;;;20.18;38.52;99617.38;4959771;28;20106;-75
2021/10/11 12:00:54;;;;;;;2.33;1.77;;;;;;;20.00;37.81;99615.53;4960163;28;20074;-75
2021/10/11 12:03:23;;;;;;;;;;;;;;;18.97;39.62;99616.22;4963329;28;20023;-74
2021/10/11 12:05:51;;;;;;;3.17;2.00;;;;;;;18.29;41.58;99614.38;4958561;28;19917;-75
2021/10/11 12:08:18;;;;;;;1.80;1.58;;;;;;;17.72;42.74;99616.31;4961917;28;20026;-76
2021/10/11 12:10:43;;;;;;;2.05;1.88;;;;;;;17.46;43.60;99615.44;4957324;28;20023;-74
2021/10/11 12:13:09;;;;;;;2.65;1.75;;;;;;;16.96;46.23;99610.00;4949703;28;20063;-75
2021/10/11 12:15:37;;;;;;;1.55;1.48;;;;;;;16.76;46.39;99608.91;4961515;28;20018;-75
2021/10/11 12:18:09;;;;;;;2.20;2.05;;;;;;;16.34;46.83;99601.34;4962248;28;20500;-74
2021/10/11 12:20:44;;;;;;;1.75;1.65;;;;;;;16.16;48.26;99597.50;4960671;28;20113;-75
2021/10/11 12:23:10;;;;;;;1.92;1.77;;;;;;;16.07;47.73;99593.38;4957597;28;20115;-75
2021/10/11 12:25:36;;;;;;;5.03;2.75;;;;;;;16.48;46.84;99587.88;4953523;28;20042;-75
2021/10/11 12:28:11;;;;;;;2.10;1.98;;;;;;;16.49;49.06;99584.34;4962739;28;20435;-74
2021/10/11 12:30:36;;;;;;;1.50;1.33;;;;;;;16.13;48.09;99587.13;4953123;28;20022;-75
2021/10/11 12:33:02;;;;;;;5.63;2.05;;;;;;;16.32;48.00;99583.09;4957282;28;20553;-75
2021/10/11 12:35:28;;;;;;;3.67;2.20;;;;;;;16.03;48.30;99578.69;4962890;28;20058;-75
2021/10/11 12:38:05;;;;;;;1.52;1.42;;;;;;;16.09;48.92;99581.13;4959548;28;20428;-75
2021/10/11 12:40:30;;;;;;;1.77;1.67;;;;;;;15.89;49.07;99579.03;4950210;28;20477;-74
2021/10/11 12:42:55;;;;;;;2.13;2.00;;;;;;;15.54;49.72;99585.16;4954290;28;20026;-75
2021/10/11 12:45:22;;;;;;;4.43;2.45;;;;;;;16.28;49.14;99580.59;4953431;28;20027;-74
2021/10/11 12:47:47;;;;;;;1.77;1.67;;;;;;;16.07;48.66;99577.69;4953417;28;20206;-75
2021/10/11 12:50:15;;;;;;;2.20;2.10;;;;;;;16.23;48.27;99580.72;4963909;28;20024;-75
2021/10/11 12:52:45;;;;;;;1.20;1.15;;;;;;;16.17;48.81;99584.38;4954069;28;20019;-75
2021/10/11 12:55:17;;;;;;;4.10;3.20;;;;;;;16.32;49.43;99577.00;4958310;28;20034;-74
2021/10/11 12:57:45;;;;;;;1.73;1.55;;;;;;;16.03;48.11;99580.44;4957177;28;20028;-75
2021/10/11 13:00:17;;;;;;;2.95;1.23;;;;;;;15.98;49.33;99577.94;4963419;28;20026;-75
2021/10/11 13:02:43;;;;;;;1.98;1.77;;;;;;;16.10;50.21;99572.41;4968035;28;20361;-75
2021/10/11 13:05:09;;;;;;;2.17;1.80;;;;;;;15.65;48.94;99579.69;4964528;28;20045;-74
2021/10/11 13:07:36;;;;;;;9.40;3.22;;;;;;;16.04;48.38;99577.78;4962614;28;20025;-75
2021/10/11 13:10:04;;;;;;;4.30;2.30;;;;;;;15.63;49.15;99577.13;4960419;28;20024;-75
2021/10/11 13:12:30;;;;;;;3.65;2.40;;;;;;;15.83;49.53;99580.97;4957846;28;20023;-74
2021/10/11 13:14:55;;;;;;;2.67;2.47;;;;;;;16.11;49.75;99579.34;4959407;28;20027;-75
2021/10/11 13:17:21;;;;;;;5.32;2.08;;;;;;;15.93;49.27;99577.22;4963253;28;20030;-75
2021/10/11 13:19:46;;;;;;;2.65;1.95;;;;;;;15.88;48.50;99571.25;4958567;28;20033;-75
2021/10/11 13:22:11;;;;;;;2.22;1.98;;;;;;;15.39;50.24;99568.13;4966705;28;20388;-73
2021/10/11 13:24:38;;;;;;;2.70;2.55;;;;;;;15.58;49.60;99572.88;4964103;28;20025;-73
2021/10/11 13:27:03;;;;;;;1.05;0.95;;;;;;;15.65;50.28;99564.88;4966043;28;20015;-73
2021/10/11 14:28:41;;;;;;;4.82;2.47;;;;;;;13.82;60.27;99574.09;4951761;28;20033;-74
2021/10/11 14:31:23;;;;;;;1.52;1.42;;;;;;;13.21;62.79;99572.53;4956141;28;20118;-74
2021/10/11 14:34:01;;;;;;;2.35;2.00;;;;;;;13.23;63.07;99570.78;4958754;28;20571;-75
2021/10/11 15:54:32;;;;;;;14.23;3.10;;;;;;;11.37;76.36;99598.06;4961579;28;20078;-72
2021/10/11 15:57:18;;;;;;;11.48;4.55;;;;;;;11.11;78.10;99606.03;4953776;28;20046;-72
2021/10/11 15:59:16;;;;;;;4.88;4.53;;;;;;;11.32;78.85;99607.63;4953670;28;20473;-73
2021/10/11 16:04:07;;;;;;;4.80;4.47;;;;;;;10.88;81.64;99613.97;4957591;28;20058;-73
2021/10/11 16:06:34;;;;;;;5.68;4.22;;;;;;;11.07;80.42;99610.38;4961314;28;20019;-73
2021/10/11 16:08:59;;;;;;;4.18;3.83;;;;;;;10.61;82.18;99609.78;4952814;28;20019;-73
2021/10/11 16:11:25;;;;;;;6.65;3.90;;;;;;;10.99;81.78;99606.97;4953226;28;20030;-73
2021/10/11 16:13:50;;;;;;;4.70;3.45;;;;;;;10.85;82.47;99613.13;4952103;28;20021;-73
2021/10/11 16:16:15;;;;;;;3.67;3.38;;;;;;;10.93;83.04;99607.03;4954222;28;20539;-72
2021/10/11 16:18:41;;;;;;;6.25;5.68;;;;;;;10.95;82.57;99610.44;4954847;28;20019;-73
2021/10/11 16:21:08;;;;;;;4.35;4.00;;;;;;;10.98;82.02;99605.25;4953539;28;20047;-73
2021/10/11 16:23:36;;;;;;;2.88;2.65;;;;;;;10.87;82.14;99609.63;4953391;28;20099;-73
2021/10/11 16:26:02;;;;;;;3.72;3.38;;;;;;;10.77;82.54;99615.72;4953628;28;20388;-74
2021/10/11 16:28:27;;;;;;;4.38;4.07;;;;;;;10.99;81.76;99612.16;5010636;23;20058;-72
2021/10/11 16:30:53;;;;;;;5.47;5.03;;;;;;;11.01;81.36;99614.72;4967905;28;20066;-72
2021/10/11 16:33:18;;;;;;;17.52;11.20;;;;;;;11.09;82.53;99612.97;4969830;28;20042;-72
2021/10/11 16:35:44;;;;;;;4.45;4.05;;;;;;;11.10;81.36;99613.81;4967374;28;20058;-72
2021/10/11 16:38:10;;;;;;;7.25;2.65;;;;;;;10.97;81.60;99620.81;4968835;28;20023;-73
2021/10/11 16:40:37;;;;;;;3.90;3.58;;;;;;;11.05;81.91;99617.31;4972589;28;20081;-72
2021/10/11 16:43:03;;;;;;;3.47;3.20;;;;;;;10.52;83.11;99622.78;4973326;28;20019;-72
2021/10/11 16:45:28;;;;;;;4.97;4.45;;;;;;;10.52;83.94;99630.53;4972847;28;20480;-72
2021/10/11 16:47:53;;;;;;;6.32;4.10;;;;;;;10.77;83.30;99636.47;4972587;28;20046;-72
2021/10/11 16:50:19;;;;;;;4.68;4.30;;;;;;;10.83;82.40;99626.09;4972465;28;20027;-72
2021/10/11 16:52:44;;;;;;;3.97;3.20;;;;;;;10.81;81.97;99633.84;4972434;28;20031;-71
2021/10/11 16:55:11;;;;;;;4.03;3.70;;;;;;;10.62;83.48;99628.78;4972518;28;20368;-71
2021/10/11 16:57:40;;;;;;;4.40;3.95;;;;;;;10.84;82.79;99633.00;4972462;28;20019;-71
2021/10/11 17:00:07;;;;;;;3.80;3.50;;;;;;;10.70;83.33;99632.19;4972538;28;20028;-71
2021/10/11 17:02:32;;;;;;;2.45;2.25;;;;;;;10.62;84.34;99631.38;4972268;28;20031;-71
2021/10/11 17:04:57;;;;;;;5.32;4.80;;;;;;;10.97;82.66;99633.78;4972407;28;20027;-70
2021/10/11 17:07:23;;;;;;;3.53;3.25;;;;;;;10.74;83.27;99628.72;4972373;28;20050;-70
2021/10/11 17:09:48;;;;;;;3.78;3.10;;;;;;;10.59;84.21;99631.38;4972399;28;20120;-70
2021/10/11 17:12:13;;;;;;;4.35;4.03;;;;;;;10.96;83.53;99632.91;4973803;28;20022;-71
2021/10/11 17:14:39;;;;;;;4.18;3.58;;;;;;;10.82;83.24;99635.56;4972569;28;20468;-70
2021/10/11 17:17:05;;;;;;;5.32;4.93;;;;;;;10.69;83.78;99630.50;4971912;28;20360;-71
2021/10/11 17:19:30;;;;;;;3.88;3.58;;;;;;;10.86;83.52;99630.38;4972385;28;20534;-70
2021/10/11 17:21:55;;;;;;;4.53;4.13;;;;;;;10.66;84.04;99628.75;4972137;28;20476;-70
2021/10/11 17:24:21;;;;;;;4.13;3.83;;;;;;;10.66;85.40;99630.50;4972223;28;20019;-70
2021/10/11 17:26:48;;;;;;;5.63;2.97;;;;;;;10.67;85.09;99633.06;4972176;28;20031;-70
2021/10/11 17:29:13;;;;;;;3.65;3.40;;;;;;;10.67;85.06;99634.78;4971910;28;20031;-70
2021/10/11 17:31:39;;;;;;;3.33;3.08;;;;;;;10.54;86.07;99634.00;4972153;28;20030;-71
2021/10/11 17:34:04;;;;;;;5.80;3.97;;;;;;;10.52;86.23;99635.72;4972033;28;20031;-71
2021/10/11 17:36:30;;;;;;;5.28;4.25;;;;;;;10.51;86.65;99639.19;4972357;28;20027;-73
2021/10/11 17:38:55;;;;;;;6.10;4.90;;;;;;;10.50;86.66;99635.75;4971995;28;20485;-73
2021/10/11 17:41:21;;;;;;;4.90;4.13;;;;;;;10.41;87.03;99638.38;4973727;28;20035;-72
2021/10/11 17:43:46;;;;;;;4.25;3.85;;;;;;;10.57;87.06;99639.16;4975189;28;20496;-73
2021/10/11 17:46:12;;;;;;;5.40;5.00;;;;;;;10.61;86.13;99648.66;4975372;28;20075;-72
2021/10/11 17:48:39;;;;;;;4.85;2.80;;;;;;;10.80;85.10;99646.84;4974864;28;20069;-72
2021/10/11 17:51:06;;;;;;;4.35;3.92;;;;;;;10.81;85.47;99645.97;4973596;28;20475;-70
2021/10/11 17:53:31;;;;;;;6.63;3.65;;;;;;;10.64;86.11;99650.38;4974698;28;20033;-70
2021/10/11 17:55:56;;;;;;;5.13;3.42;;;;;;;10.58;86.63;99655.56;4975339;28;20125;-71
2021/10/11 17:58:22;;;;;;;5.97;4.43;;;;;;;10.70;86.31;99645.16;4974640;28;20464;-71
2021/10/11 18:00:47;;;;;;;4.57;4.18;;;;;;;10.52;86.26;99646.94;4975370;28;20101;-71
2021/10/11 18:03:13;;;;;;;3.30;3.05;;;;;;;10.63;87.15;99633.94;4974506;28;20035;-70
2021/10/11 18:05:38;;;;;;;4.43;4.03;;;;;;;10.57;86.57;99638.31;4975157;28;20432;-71
2021/10/11 18:08:04;;;;;;;4.95;4.07;;;;;;;10.72;86.07;99633.91;4975153;28;20038;-71